Time;durP1;ratioP1;P1;durP2;ratioP2;P2;SDS_P1;SDS_P2;PMS_P1;PMS_P2;Temp;Humidity;BMP_temperature;BMP_pressure;BME280_temperature;BME280_humidity;BME280_pressure;Samples;Min_cycle;Max_cycle;Signal;HPM_P1;HPM_P2
2023/10/25 00:02:23;;;;;;;7.60;2.40;;;9.30;99.90;;;;;;5031147;28;20037;-74
2023/10/25 00:04:54;;;;;;;14.43;3.10;;;9.20;99.90;;;;;;5029446;28;20029;-73
2023/10/25 00:07:20;;;;;;;7.05;2.72;;;9.20;99.90;;;;;;5028085;28;20128;-73
2023/10/25 00:09:46;;;;;;;7.93;2.95;;;9.20;99.90;;;;;;5028232;28;20037;-74
2023/10/25 00:12:11;;;;;;;14.18;3.33;;;9.20;99.90;;;;;;5013809;28;20033;-72
2023/10/25 00:14:37;;;;;;;5.15;2.95;;;9.20;99.90;;;;;;5008374;28;20036;-72
2023/10/25 00:17:02;;;;;;;7.30;2.72;;;9.20;99.90;;;;;;5026988;28;20030;-74
2023/10/25 00:19:28;;;;;;;11.05;3.45;;;9.10;99.90;;;;;;5027026;28;20040;-73
2023/10/25 00:21:53;;;;;;;9.98;3.35;;;9.10;99.90;;;;;;5033699;28;20084;-73
2023/10/25 00:24:19;;;;;;;9.75;2.88;;;9.10;99.90;;;;;;5015655;28;20029;-74
2023/10/25 00:26:44;;;;;;;11.45;3.25;;;9.10;99.90;;;;;;5025587;28;20030;-74
2023/10/25 00:29:10;;;;;;;6.97;3.08;;;9.00;99.90;;;;;;5027028;28;20034;-73
2023/10/25 00:31:36;;;;;;;7.45;3.30;;;9.00;99.90;;;;;;5026120;28;20029;-75
2023/10/25 00:34:01;;;;;;;6.65;2.60;;;9.00;99.90;;;;;;5026712;28;20044;-74
2023/10/25 00:36:27;;;;;;;4.45;2.60;;;9.00;99.90;;;;;;5009136;28;20061;-72
2023/10/25 00:38:52;;;;;;;5.22;2.70;;;9.00;99.90;;;;;;5007880;28;20406;-71
2023/10/25 00:41:18;;;;;;;9.20;3.05;;;9.00;99.90;;;;;;5009328;28;20510;-71
2023/10/25 00:43:43;;;;;;;6.28;2.95;;;9.00;99.90;;;;;;5025563;28;20076;-72
2023/10/25 00:46:20;;;;;;;7.05;3.05;;;9.00;99.90;;;;;;5009003;28;20038;-73
2023/10/25 00:48:49;;;;;;;8.30;3.42;;;8.90;99.90;;;;;;5008000;28;20035;-72
2023/10/25 00:51:18;;;;;;;7.97;3.03;;;9.00;99.90;;;;;;5026872;28;20028;-74
2023/10/25 00:53:51;;;;;;;7.13;2.92;;;8.90;99.90;;;;;;5007760;28;20065;-72
2023/10/25 00:56:19;;;;;;;5.93;2.75;;;8.90;99.90;;;;;;5008889;28;20021;-73
2023/10/25 00:58:48;;;;;;;10.15;2.90;;;8.90;99.90;;;;;;5033076;28;20459;-73
2023/10/25 01:01:15;;;;;;;14.48;3.25;;;8.90;99.90;;;;;;5006411;28;20064;-71
2023/10/25 01:03:41;;;;;;;11.02;4.07;;;8.90;99.90;;;;;;5010265;28;20124;-71
2023/10/25 01:06:06;;;;;;;7.82;2.65;;;8.90;99.90;;;;;;5012935;28;20116;-73
2023/10/25 01:08:32;;;;;;;7.30;3.42;;;8.80;99.90;;;;;;5022236;28;20478;-72
2023/10/25 01:10:58;;;;;;;7.05;3.22;;;8.90;99.90;;;;;;5003685;28;20033;-72
2023/10/25 01:13:24;;;;;;;9.57;3.28;;;8.80;99.90;;;;;;5030393;28;20032;-73
2023/10/25 01:15:49;;;;;;;6.70;2.63;;;8.80;99.90;;;;;;5017892;28;20045;-73
2023/10/25 01:18:16;;;;;;;8.35;3.00;;;8.80;99.90;;;;;;5030352;28;20037;-73
2023/10/25 01:20:42;;;;;;;7.00;3.15;;;8.80;99.90;;;;;;5031096;28;20030;-72
2023/10/25 01:23:08;;;;;;;7.90;2.88;;;8.80;99.90;;;;;;5015073;28;20060;-72
2023/10/25 01:25:34;;;;;;;11.02;3.03;;;8.80;99.90;;;;;;5012407;28;20057;-72
2023/10/25 01:28:00;;;;;;;10.07;2.83;;;8.80;99.90;;;;;;5012318;28;20033;-73
2023/10/25 01:30:26;;;;;;;11.27;2.90;;;8.80;99.90;;;;;;5010550;28;20049;-74
2023/10/25 01:32:53;;;;;;;6.88;2.80;;;8.80;99.90;;;;;;5011129;28;20033;-72
2023/10/25 01:35:18;;;;;;;7.43;2.83;;;8.80;99.90;;;;;;5011989;28;20071;-73
2023/10/25 01:37:44;;;;;;;12.32;2.95;;;8.80;99.90;;;;;;5011350;28;20377;-71
2023/10/25 01:40:11;;;;;;;7.28;3.70;;;8.80;99.90;;;;;;5011797;28;20057;-72
2023/10/25 01:42:36;;;;;;;7.78;2.28;;;8.70;99.90;;;;;;5003010;28;20118;-75
2023/10/25 01:45:02;;;;;;;10.05;2.90;;;8.70;99.90;;;;;;4998751;28;20077;-71
2023/10/25 01:47:28;;;;;;;10.48;3.72;;;8.70;99.90;;;;;;5026980;28;20132;-72
2023/10/25 01:49:54;;;;;;;4.82;2.92;;;8.70;99.90;;;;;;5011233;28;20033;-74
2023/10/25 01:52:19;;;;;;;6.63;2.97;;;8.70;99.90;;;;;;5011884;28;20045;-73
2023/10/25 01:54:46;;;;;;;7.03;3.15;;;8.70;99.90;;;;;;5028517;28;20037;-72
2023/10/25 01:57:12;;;;;;;8.32;3.13;;;8.70;99.90;;;;;;5011709;28;20045;-74
2023/10/25 01:59:37;;;;;;;11.68;2.53;;;8.70;99.90;;;;;;5010576;28;20099;-74
2023/10/25 02:02:03;;;;;;;12.68;3.03;;;8.70;99.90;;;;;;5028830;28;20033;-74
2023/10/25 02:04:29;;;;;;;8.13;2.70;;;8.70;99.90;;;;;;5029423;28;20044;-71
2023/10/25 02:06:55;;;;;;;10.77;3.88;;;8.70;99.90;;;;;;5010869;28;20045;-73
2023/10/25 02:09:21;;;;;;;7.60;2.47;;;8.70;99.90;;;;;;5029551;28;20171;-72
2023/10/25 02:11:47;;;;;;;6.80;2.75;;;8.70;99.90;;;;;;5014292;28;20038;-72
2023/10/25 02:14:13;;;;;;;16.52;3.05;;;8.70;99.90;;;;;;5018034;28;20090;-73
2023/10/25 04:48:26;;;;;;;4.95;1.92;;;8.80;99.90;;;;;;5023040;28;20137;-74
2023/10/25 05:01:33;;;;;;;8.23;2.15;;;8.90;99.90;;;;;;5022821;28;20159;-73
2023/10/25 06:19:33;;;;;;;6.35;1.83;;;9.00;99.90;;;;;;5022646;28;20033;-72
2023/10/25 06:21:58;;;;;;;7.35;2.33;;;9.00;99.90;;;;;;4991533;28;20057;-72
2023/10/25 06:24:24;;;;;;;7.95;3.08;;;9.10;99.90;;;;;;5004167;28;20567;-73
2023/10/25 06:26:50;;;;;;;6.25;1.85;;;9.10;99.90;;;;;;5019774;28;20503;-72
2023/10/25 06:29:15;;;;;;;5.05;2.03;;;9.10;99.90;;;;;;5000305;28;20384;-73
2023/10/25 06:31:41;;;;;;;4.97;2.47;;;9.10;99.90;;;;;;5004938;28;20430;-72
2023/10/25 06:34:07;;;;;;;8.70;2.15;;;9.10;99.90;;;;;;5008063;28;20030;-75
2023/10/25 06:36:33;;;;;;;9.55;1.80;;;9.10;99.90;;;;;;5010464;28;20651;-75
2023/10/25 06:39:04;;;;;;;13.07;1.65;;;9.10;99.90;;;;;;4999362;28;20041;-72
2023/10/25 06:41:30;;;;;;;5.20;1.88;;;9.10;99.90;;;;;;5006819;28;20483;-73
2023/10/25 06:43:56;;;;;;;6.65;1.85;;;9.10;99.90;;;;;;5016123;28;20030;-71
2023/10/25 06:46:22;;;;;;;9.32;2.17;;;9.10;99.90;;;;;;5007378;28;20239;-75
2023/10/25 06:48:48;;;;;;;9.40;2.80;;;9.10;99.90;;;;;;5004794;28;20026;-74
2023/10/25 06:51:15;;;;;;;5.80;1.75;;;9.10;99.90;;;;;;5024056;28;20029;-75
2023/10/25 06:53:40;;;;;;;8.68;1.92;;;9.20;99.90;;;;;;4998849;28;20045;-74
2023/10/25 06:56:07;;;;;;;6.55;1.70;;;9.10;99.90;;;;;;5017216;28;20034;-73
2023/10/25 06:58:33;;;;;;;5.05;1.60;;;9.10;99.90;;;;;;5009928;28;20499;-72
2023/10/25 07:01:00;;;;;;;5.63;2.03;;;9.10;99.90;;;;;;4998283;28;20096;-75
2023/10/25 07:03:49;;;;;;;4.68;1.65;;;9.20;99.90;;;;;;5022252;28;20040;-74
2023/10/25 07:06:16;;;;;;;6.93;1.67;;;9.20;99.90;;;;;;4992492;28;20037;-72
2023/10/25 07:08:42;;;;;;;8.07;2.78;;;9.20;99.90;;;;;;5003289;28;20037;-74
2023/10/25 07:11:07;;;;;;;8.80;2.92;;;9.30;99.90;;;;;;5008799;28;20030;-73
2023/10/25 07:13:33;;;;;;;5.40;1.90;;;9.20;99.90;;;;;;5023062;28;20069;-73
2023/10/25 07:15:59;;;;;;;5.22;1.55;;;9.20;99.90;;;;;;5014692;28;20025;-73
2023/10/25 07:18:25;;;;;;;6.72;2.47;;;9.20;99.90;;;;;;5002152;28;20033;-74
2023/10/25 07:20:50;;;;;;;7.03;2.03;;;9.30;99.90;;;;;;5007860;28;20096;-74
2023/10/25 07:23:16;;;;;;;6.57;2.42;;;9.30;99.90;;;;;;5004300;28;20067;-73
2023/10/25 07:25:45;;;;;;;6.85;2.28;;;9.30;99.90;;;;;;5019324;28;20022;-71
2023/10/25 07:28:11;;;;;;;9.20;2.25;;;9.30;99.90;;;;;;4997272;28;20050;-77
2023/10/25 07:30:36;;;;;;;8.38;2.95;;;9.30;99.90;;;;;;5015626;28;20044;-72
2023/10/25 07:33:02;;;;;;;11.20;2.05;;;9.40;99.90;;;;;;5017819;28;20919;-72
2023/10/25 07:35:28;;;;;;;5.60;1.90;;;9.40;99.90;;;;;;5007351;28;20041;-73
2023/10/25 07:37:54;;;;;;;3.25;1.80;;;9.40;99.90;;;;;;5005022;28;20455;-74
2023/10/25 07:40:19;;;;;;;8.43;2.30;;;9.50;99.90;;;;;;5020647;28;20104;-74
2023/10/25 07:42:46;;;;;;;5.88;2.20;;;9.50;99.90;;;;;;5016081;28;20076;-73
2023/10/25 07:45:12;;;;;;;4.57;1.95;;;9.50;99.90;;;;;;5017856;28;20072;-73
2023/10/25 07:47:38;;;;;;;7.07;2.08;;;9.60;99.90;;;;;;5018654;28;20041;-74
2023/10/25 07:50:05;;;;;;;7.30;2.50;;;9.60;99.90;;;;;;5014146;28;20034;-72
2023/10/25 07:52:33;;;;;;;3.50;1.88;;;9.60;99.90;;;;;;5014872;28;20038;-72
2023/10/25 07:54:59;;;;;;;7.68;1.75;;;9.60;99.90;;;;;;5006983;28;20037;-73
2023/10/25 07:57:25;;;;;;;6.43;1.85;;;9.70;99.90;;;;;;5021457;28;20172;-73
2023/10/25 07:59:51;;;;;;;9.10;1.30;;;9.70;99.90;;;;;;5011227;28;20030;-73
2023/10/25 08:02:17;;;;;;;6.68;1.67;;;9.70;99.90;;;;;;5010127;28;20041;-73
2023/10/25 08:04:42;;;;;;;3.45;1.70;;;9.70;99.90;;;;;;5020073;28;20051;-73
2023/10/25 08:07:10;;;;;;;13.43;2.35;;;9.70;99.90;;;;;;5005508;28;20092;-73
2023/10/25 08:09:36;;;;;;;8.95;1.60;;;9.70;99.90;;;;;;5008279;28;20083;-73
2023/10/25 08:12:01;;;;;;;9.73;3.08;;;9.80;99.90;;;;;;5003886;28;20030;-73
2023/10/25 08:14:27;;;;;;;7.45;1.70;;;9.80;99.90;;;;;;5013110;28;20128;-73
2023/10/25 08:16:52;;;;;;;3.25;1.63;;;9.80;99.90;;;;;;5022308;28;20057;-73
2023/10/25 08:19:19;;;;;;;4.53;1.65;;;9.80;99.90;;;;;;5025264;28;20046;-73
2023/10/25 08:21:45;;;;;;;5.88;1.65;;;9.80;99.90;;;;;;5009311;28;20210;-73
2023/10/25 08:24:10;;;;;;;10.73;1.35;;;9.80;99.90;;;;;;5021731;28;20854;-74
2023/10/25 08:26:39;;;;;;;7.97;1.90;;;9.80;99.90;;;;;;5014985;28;20518;-74
2023/10/25 08:29:06;;;;;;;4.82;2.00;;;9.90;99.90;;;;;;5000589;28;20048;-74
2023/10/25 08:31:33;;;;;;;5.85;1.98;;;9.80;99.90;;;;;;5006491;28;20029;-74
2023/10/25 08:33:59;;;;;;;4.93;2.00;;;9.80;99.90;;;;;;5008836;28;21043;-74
2023/10/25 08:36:25;;;;;;;5.82;1.75;;;9.80;99.90;;;;;;5011425;28;20517;-73
2023/10/25 08:38:50;;;;;;;6.13;2.10;;;9.90;99.90;;;;;;5008091;28;20132;-73
2023/10/25 08:41:19;;;;;;;4.97;1.60;;;9.90;99.90;;;;;;5012303;28;20558;-74
2023/10/25 08:43:45;;;;;;;7.22;1.80;;;9.90;99.90;;;;;;5026377;28;20831;-75
2023/10/25 08:46:13;;;;;;;5.00;1.85;;;9.90;99.90;;;;;;5008631;28;20029;-75
2023/10/25 08:48:38;;;;;;;4.05;1.92;;;9.90;99.90;;;;;;5004668;28;20927;-74
2023/10/25 08:51:05;;;;;;;4.20;1.50;;;9.90;99.90;;;;;;5023973;28;20108;-74
2023/10/25 08:53:31;;;;;;;6.68;1.60;;;9.90;99.90;;;;;;5023688;28;20044;-74
2023/10/25 08:55:58;;;;;;;3.25;1.50;;;9.90;99.90;;;;;;5010971;28;20029;-74
2023/10/25 08:58:24;;;;;;;5.97;1.55;;;9.90;99.90;;;;;;5013728;28;20080;-73
2023/10/25 09:00:51;;;;;;;9.32;1.48;;;9.90;99.90;;;;;;5013719;28;20041;-75
2023/10/25 09:03:32;;;;;;;2.78;1.38;;;9.90;99.90;;;;;;5012305;28;20044;-73
2023/10/25 09:05:59;;;;;;;6.70;2.00;;;9.80;99.90;;;;;;5010290;28;20030;-74
2023/10/25 09:08:26;;;;;;;5.53;1.45;;;9.80;99.90;;;;;;5018807;28;20511;-72
2023/10/25 09:11:02;;;;;;;3.67;1.67;;;9.80;99.90;;;;;;5025374;28;20119;-72
2023/10/25 09:13:36;;;;;;;6.00;2.33;;;9.80;99.90;;;;;;5011911;28;20034;-72
2023/10/25 09:16:07;;;;;;;6.88;2.20;;;9.90;99.90;;;;;;5019080;28;20033;-74
2023/10/25 09:18:34;;;;;;;4.78;1.60;;;9.80;99.90;;;;;;5020518;28;20483;-72
2023/10/25 09:21:01;;;;;;;12.75;2.40;;;9.90;99.90;;;;;;5020845;28;20437;-74
2023/10/25 09:23:28;;;;;;;6.68;1.90;;;9.80;99.90;;;;;;5018930;28;20034;-73
2023/10/25 09:26:01;;;;;;;4.20;1.73;;;9.90;99.90;;;;;;5016160;28;20038;-72
2023/10/25 09:28:28;;;;;;;4.60;1.88;;;9.90;99.90;;;;;;4999003;28;20038;-73
2023/10/25 09:30:58;;;;;;;7.25;2.28;;;9.80;99.90;;;;;;5015968;28;20041;-73
2023/10/25 09:33:27;;;;;;;4.65;2.03;;;9.80;99.90;;;;;;5007708;28;20026;-73
2023/10/25 09:35:53;;;;;;;5.38;2.25;;;9.80;99.90;;;;;;5002452;28;20048;-76
2023/10/25 09:38:18;;;;;;;7.55;2.58;;;9.80;99.90;;;;;;5009161;28;20423;-73
2023/10/25 09:40:46;;;;;;;12.45;2.72;;;9.80;99.90;;;;;;5004793;28;20042;-74
2023/10/25 09:43:20;;;;;;;5.80;2.30;;;9.80;99.90;;;;;;5021623;28;20034;-74
2023/10/25 09:45:53;;;;;;;5.20;1.95;;;9.70;99.90;;;;;;5007512;28;20041;-73
2023/10/25 09:48:20;;;;;;;5.28;1.90;;;9.70;99.90;;;;;;5017858;28;20072;-73
2023/10/25 09:51:07;;;;;;;10.88;2.67;;;9.70;99.90;;;;;;5008170;28;20034;-73
2023/10/25 09:53:52;;;;;;;8.32;2.10;;;9.80;99.90;;;;;;5024861;28;20042;-71
2023/10/25 09:56:18;;;;;;;5.43;2.38;;;9.80;99.90;;;;;;5007530;28;20388;-73
2023/10/25 09:58:46;;;;;;;4.90;1.95;;;9.70;99.90;;;;;;5016812;28;20045;-74
2023/10/25 10:01:11;;;;;;;5.85;2.15;;;9.80;99.90;;;;;;5011378;28;20049;-73
2023/10/25 10:03:44;;;;;;;5.00;1.80;;;9.80;99.90;;;;;;5010127;28;20030;-72
2023/10/25 10:06:22;;;;;;;5.07;2.13;;;9.80;99.90;;;;;;5010362;28;20041;-72
2023/10/25 10:08:59;;;;;;;7.88;2.72;;;9.80;99.90;;;;;;5005912;28;20107;-71
2023/10/25 10:11:31;;;;;;;5.78;2.83;;;9.80;99.90;;;;;;5022340;28;20124;-71
2023/10/25 10:14:25;;;;;;;6.15;2.42;;;9.80;99.90;;;;;;5004739;28;20469;-71
2023/10/25 10:16:50;;;;;;;7.72;2.17;;;9.80;99.90;;;;;;5023132;28;20044;-73
2023/10/25 10:19:16;;;;;;;5.28;2.08;;;9.90;99.90;;;;;;5009932;28;20487;-72
2023/10/25 10:22:11;;;;;;;4.13;2.42;;;9.90;99.90;;;;;;5010342;28;20068;-72
2023/10/25 10:24:41;;;;;;;7.78;2.42;;;9.90;99.90;;;;;;5008763;28;20072;-73
2023/10/25 10:27:08;;;;;;;10.50;2.47;;;9.90;99.90;;;;;;5009947;28;20041;-72
2023/10/25 10:29:33;;;;;;;6.28;3.17;;;9.90;99.90;;;;;;5023230;28;20377;-71
2023/10/25 10:32:01;;;;;;;5.15;2.08;;;9.90;99.90;;;;;;5004161;28;20215;-73
2023/10/25 10:34:49;;;;;;;3.13;1.55;;;10.00;99.90;;;;;;5018475;28;20049;-71
2023/10/25 10:37:24;;;;;;;5.10;2.10;;;10.00;99.90;;;;;;5019791;28;20060;-73
2023/10/25 10:39:55;;;;;;;5.45;2.65;;;10.00;99.90;;;;;;5005875;28;20029;-73
2023/10/25 10:42:25;;;;;;;5.18;2.03;;;10.00;99.90;;;;;;5004117;28;20407;-72
2023/10/25 10:44:51;;;;;;;7.20;1.70;;;10.00;99.90;;;;;;5017960;28;20461;-71
2023/10/25 10:47:22;;;;;;;7.28;1.80;;;10.00;99.90;;;;;;5022134;28;20041;-71
2023/10/25 10:49:56;;;;;;;4.75;1.73;;;10.10;99.90;;;;;;5024424;28;20033;-71
2023/10/25 10:52:23;;;;;;;4.75;1.60;;;10.10;99.90;;;;;;5006245;28;20037;-72
2023/10/25 10:54:49;;;;;;;7.32;2.00;;;10.00;99.90;;;;;;5010918;28;20044;-72
2023/10/25 10:57:16;;;;;;;6.07;1.85;;;10.10;99.90;;;;;;5011520;28;20041;-73
2023/10/25 10:59:45;;;;;;;6.90;1.65;;;10.00;99.90;;;;;;5008176;28;20041;-72
2023/10/25 11:02:12;;;;;;;7.47;1.70;;;10.10;99.90;;;;;;5011317;28;20037;-73
2023/10/25 11:04:41;;;;;;;5.90;2.38;;;10.10;99.90;;;;;;5011689;28;20065;-72
2023/10/25 11:07:07;;;;;;;6.38;2.63;;;10.10;99.90;;;;;;5017339;28;20065;-72
2023/10/25 11:09:33;;;;;;;4.93;2.00;;;10.20;99.90;;;;;;5004331;28;20061;-72
2023/10/25 11:12:09;;;;;;;6.25;2.35;;;10.20;99.90;;;;;;5001008;28;22288;-73
2023/10/25 11:14:45;;;;;;;3.88;2.33;;;10.20;99.90;;;;;;5007753;28;20053;-75
2023/10/25 11:17:12;;;;;;;6.45;2.83;;;10.20;99.90;;;;;;5023605;28;20501;-73
2023/10/25 11:19:38;;;;;;;5.22;2.45;;;10.20;99.90;;;;;;5019496;28;20030;-73
2023/10/25 11:22:04;;;;;;;6.75;2.92;;;10.30;99.90;;;;;;5005265;28;20621;-72
2023/10/25 11:24:30;;;;;;;9.65;2.17;;;10.30;99.90;;;;;;5005557;28;20041;-75
2023/10/25 11:26:55;;;;;;;9.65;3.08;;;10.30;99.90;;;;;;5003023;28;20037;-73
2023/10/25 11:29:22;;;;;;;9.63;2.30;;;10.30;99.90;;;;;;5013641;28;20772;-73
2023/10/25 11:31:50;;;;;;;9.23;3.35;;;10.30;99.90;;;;;;5003691;28;20040;-72
2023/10/25 11:34:20;;;;;;;4.53;2.20;;;10.40;99.90;;;;;;5002189;28;20025;-73
2023/10/25 11:36:49;;;;;;;6.38;2.72;;;10.40;99.90;;;;;;5006876;28;20037;-73
2023/10/25 11:39:14;;;;;;;8.77;2.85;;;10.40;99.90;;;;;;5022657;28;20068;-73
2023/10/25 11:41:42;;;;;;;5.30;2.33;;;10.30;99.90;;;;;;5002893;28;20049;-76
2023/10/25 11:44:08;;;;;;;7.60;2.35;;;10.40;99.90;;;;;;5009106;28;20033;-76
2023/10/25 11:46:44;;;;;;;7.97;2.65;;;10.40;99.90;;;;;;5010796;28;20054;-75
2023/10/25 11:49:10;;;;;;;10.73;3.05;;;10.40;99.90;;;;;;5000736;28;20704;-72
2023/10/25 11:51:36;;;;;;;11.68;4.05;;;10.30;99.90;;;;;;5008020;28;20053;-73
2023/10/25 11:54:03;;;;;;;9.00;2.75;;;10.30;99.90;;;;;;5010003;28;20041;-74
2023/10/25 11:56:28;;;;;;;8.98;3.40;;;10.30;99.90;;;;;;5007684;28;20060;-78
2023/10/25 11:58:54;;;;;;;5.35;2.40;;;10.30;99.90;;;;;;5003946;28;20113;-74
2023/10/25 12:01:20;;;;;;;6.10;3.13;;;10.30;99.90;;;;;;5012096;28;20696;-73
2023/10/25 12:03:46;;;;;;;7.63;2.25;;;10.30;99.90;;;;;;5007143;28;20029;-73
2023/10/25 12:06:12;;;;;;;5.88;2.80;;;10.40;99.90;;;;;;5009850;28;20088;-74
2023/10/25 12:08:40;;;;;;;16.13;4.88;;;10.40;99.90;;;;;;5010359;28;20399;-72
2023/10/25 12:11:07;;;;;;;6.50;2.75;;;10.40;99.90;;;;;;5005271;28;20045;-72
2023/10/25 12:13:34;;;;;;;6.65;2.95;;;10.40;99.90;;;;;;5019185;28;20377;-74
2023/10/25 12:16:00;;;;;;;8.60;3.13;;;10.40;99.90;;;;;;5020378;28;20037;-73
2023/10/25 12:18:26;;;;;;;6.82;2.60;;;10.50;99.90;;;;;;5015795;28;20034;-74
2023/10/25 12:20:51;;;;;;;8.55;2.40;;;10.50;99.90;;;;;;5014281;28;20038;-72
2023/10/25 12:23:17;;;;;;;4.95;2.63;;;10.60;99.90;;;;;;5010995;28;20137;-74
2023/10/25 12:25:42;;;;;;;10.60;2.45;;;10.60;99.90;;;;;;5019141;28;20030;-75
2023/10/25 12:28:08;;;;;;;5.70;2.17;;;10.60;99.90;;;;;;4998634;28;20092;-73
2023/10/25 12:30:33;;;;;;;4.35;2.13;;;10.50;99.90;;;;;;5005799;28;20658;-74
2023/10/25 12:32:59;;;;;;;6.93;2.70;;;10.60;99.90;;;;;;5019495;28;20999;-71
2023/10/25 12:35:24;;;;;;;6.65;2.35;;;10.60;99.90;;;;;;5011252;28;20065;-72
2023/10/25 12:37:50;;;;;;;10.30;2.47;;;10.60;99.90;;;;;;5004923;28;20069;-72
2023/10/25 12:40:16;;;;;;;4.45;2.53;;;10.60;99.90;;;;;;5007065;28;20037;-72
2023/10/25 12:42:42;;;;;;;4.30;2.45;;;10.60;99.90;;;;;;5023627;28;20042;-74
2023/10/25 12:45:08;;;;;;;7.47;2.78;;;10.60;99.90;;;;;;5007088;28;20040;-72
2023/10/25 12:47:33;;;;;;;7.05;2.10;;;10.60;99.90;;;;;;5009836;28;20041;-72
2023/10/25 12:49:59;;;;;;;8.10;2.55;;;10.60;99.90;;;;;;5012617;28;20033;-74
2023/10/25 12:52:25;;;;;;;6.60;2.55;;;10.50;99.90;;;;;;5022507;28;20087;-73
2023/10/25 12:54:50;;;;;;;7.72;2.63;;;10.50;99.90;;;;;;5005616;28;20037;-71
2023/10/25 12:57:16;;;;;;;7.30;3.75;;;10.60;99.90;;;;;;5015188;28;20042;-71
2023/10/25 12:59:42;;;;;;;5.82;2.75;;;10.50;99.90;;;;;;5009719;28;20092;-72
2023/10/25 13:02:07;;;;;;;7.07;2.75;;;10.60;99.90;;;;;;5021804;28;20667;-74
2023/10/25 13:04:33;;;;;;;7.07;2.35;;;10.60;99.90;;;;;;5015948;28;20033;-73
2023/10/25 13:06:59;;;;;;;4.70;2.33;;;10.50;99.90;;;;;;5017014;28;20033;-73
2023/10/25 13:09:25;;;;;;;7.03;2.50;;;10.60;99.90;;;;;;5010903;28;20030;-72
2023/10/25 13:11:52;;;;;;;8.70;3.05;;;10.50;99.90;;;;;;5009325;28;20049;-72
2023/10/25 13:14:18;;;;;;;8.73;2.35;;;10.60;99.90;;;;;;5026334;28;20033;-74
2023/10/25 13:16:44;;;;;;;7.47;2.55;;;10.50;99.90;;;;;;5009146;28;20180;-73
2023/10/25 13:19:09;;;;;;;6.60;2.25;;;10.50;99.90;;;;;;4999893;28;20133;-74
2023/10/25 13:21:35;;;;;;;7.50;2.63;;;10.50;99.90;;;;;;5009226;28;20677;-73
2023/10/25 13:24:01;;;;;;;6.57;2.75;;;10.50;99.90;;;;;;5001717;28;20975;-73
2023/10/25 13:26:26;;;;;;;9.23;2.65;;;10.50;99.90;;;;;;5011460;28;20041;-73
2023/10/25 15:20:13;;;;;;;4.88;2.42;;;10.40;99.90;;;;;;5079443;22;20494;-77
2023/10/25 15:22:39;;;;;;;7.38;2.80;;;10.40;99.90;;;;;;4973067;28;20062;-78
2023/10/25 15:25:05;;;;;;;12.10;3.17;;;10.40;99.90;;;;;;4967350;28;20484;-79
2023/10/25 15:27:30;;;;;;;4.65;2.17;;;10.50;99.90;;;;;;4975588;28;20056;-76
2023/10/25 15:29:56;;;;;;;6.13;2.53;;;10.50;99.90;;;;;;4985853;28;20117;-77
2023/10/25 15:32:23;;;;;;;4.20;2.40;;;10.40;99.90;;;;;;4986950;28;20034;-77
2023/10/25 15:34:49;;;;;;;7.20;2.30;;;10.40;99.90;;;;;;4983918;28;20026;-78
2023/10/25 15:37:15;;;;;;;6.35;2.38;;;10.40;99.90;;;;;;4984183;28;20488;-76
2023/10/25 15:39:40;;;;;;;4.95;2.30;;;10.40;99.90;;;;;;4973490;28;20649;-78
2023/10/25 15:42:06;;;;;;;4.75;2.03;;;10.50;99.90;;;;;;4995431;28;20049;-78
2023/10/25 15:44:31;;;;;;;7.13;2.95;;;10.40;99.90;;;;;;4983162;28;20030;-77
2023/10/25 15:46:58;;;;;;;3.85;2.10;;;10.40;99.90;;;;;;4986089;28;20046;-78
2023/10/25 15:49:23;;;;;;;5.68;2.30;;;10.40;99.90;;;;;;4988519;28;20061;-78
2023/10/25 15:51:49;;;;;;;3.72;2.20;;;10.40;99.90;;;;;;4987045;28;20062;-77
2023/10/25 15:54:16;;;;;;;5.60;2.58;;;10.40;99.90;;;;;;4986770;28;20030;-77
2023/10/25 15:56:43;;;;;;;7.93;2.40;;;10.40;99.90;;;;;;4984378;28;20472;-78
2023/10/25 15:59:10;;;;;;;4.57;2.10;;;10.40;99.90;;;;;;4985363;28;20038;-76
2023/10/25 16:01:37;;;;;;;7.05;3.10;;;10.40;99.90;;;;;;4982816;28;20046;-77
2023/10/25 16:04:03;;;;;;;5.75;2.28;;;10.40;99.90;;;;;;4986613;28;20121;-77
2023/10/25 16:06:30;;;;;;;8.05;2.58;;;10.40;99.90;;;;;;4968568;28;20574;-76
2023/10/25 16:08:56;;;;;;;5.15;2.67;;;10.40;99.90;;;;;;4985068;28;20049;-76
2023/10/25 16:11:21;;;;;;;5.40;2.55;;;10.40;99.90;;;;;;4986561;28;20391;-76
2023/10/25 16:13:50;;;;;;;4.70;2.20;;;10.40;99.90;;;;;;4983161;28;20038;-76
2023/10/25 16:16:15;;;;;;;6.32;2.35;;;10.40;99.90;;;;;;5003546;28;20029;-77
2023/10/25 16:18:41;;;;;;;5.97;2.67;;;10.40;99.90;;;;;;4993302;28;20038;-78
2023/10/25 16:21:07;;;;;;;5.93;2.00;;;10.40;99.90;;;;;;4982158;28;20034;-77
2023/10/25 16:23:45;;;;;;;3.88;2.05;;;10.40;99.90;;;;;;4994982;28;20041;-76
2023/10/25 16:26:12;;;;;;;5.18;2.38;;;10.40;99.90;;;;;;4982854;28;20081;-77
2023/10/25 16:28:39;;;;;;;6.88;2.42;;;10.40;99.90;;;;;;4986022;28;20125;-79
2023/10/25 16:31:05;;;;;;;3.50;2.22;;;10.40;99.90;;;;;;4984705;28;20041;-77
2023/10/25 16:33:32;;;;;;;6.97;2.63;;;10.40;99.90;;;;;;4998406;28;20438;-77
2023/10/25 16:36:05;;;;;;;4.75;2.28;;;10.40;99.90;;;;;;5006979;28;20089;-77
2023/10/25 16:38:32;;;;;;;7.15;3.05;;;10.40;99.90;;;;;;5009930;28;20577;-77
2023/10/25 16:41:06;;;;;;;5.78;2.88;;;10.40;99.90;;;;;;5001442;28;20035;-78
2023/10/25 16:43:33;;;;;;;4.30;2.08;;;10.40;99.90;;;;;;4995823;28;20793;-77
2023/10/25 16:46:17;;;;;;;7.15;3.17;;;10.40;99.90;;;;;;4988124;28;20074;-77
2023/10/25 16:48:43;;;;;;;6.78;2.85;;;10.40;99.90;;;;;;4974782;28;20041;-76
2023/10/25 16:51:14;;;;;;;4.88;2.42;;;10.40;99.90;;;;;;5010058;28;20037;-77
2023/10/25 16:53:43;;;;;;;4.82;2.75;;;10.40;99.90;;;;;;4991717;28;20041;-75
2023/10/25 16:56:09;;;;;;;7.13;3.28;;;10.40;99.90;;;;;;5009578;28;20038;-77
2023/10/25 16:58:35;;;;;;;5.15;3.13;;;10.40;99.90;;;;;;4988124;28;20044;-77
2023/10/25 17:01:01;;;;;;;8.68;3.20;;;10.40;99.90;;;;;;4987882;28;20066;-76
2023/10/25 17:03:28;;;;;;;6.35;3.70;;;10.40;99.90;;;;;;4992312;28;20484;-77
2023/10/25 17:05:54;;;;;;;5.10;3.15;;;10.40;99.90;;;;;;4991572;28;20495;-78
2023/10/25 17:08:20;;;;;;;9.85;3.53;;;10.40;99.90;;;;;;5010240;28;20711;-78
2023/10/25 17:10:53;;;;;;;7.32;3.33;;;10.40;99.90;;;;;;4990896;28;20044;-77
2023/10/25 17:13:20;;;;;;;8.18;3.30;;;10.40;99.90;;;;;;4984620;28;20065;-78
2023/10/25 17:15:45;;;;;;;5.90;3.60;;;10.40;99.90;;;;;;5007290;28;20065;-77
2023/10/25 17:18:13;;;;;;;6.38;3.72;;;10.40;99.90;;;;;;5004951;28;20085;-76
2023/10/25 17:20:40;;;;;;;5.97;3.58;;;10.40;99.90;;;;;;5002807;28;20045;-75
2023/10/25 17:23:06;;;;;;;9.00;3.70;;;10.40;99.90;;;;;;4986575;28;20097;-80
2023/10/25 17:25:33;;;;;;;6.68;3.50;;;10.40;99.90;;;;;;4998156;28;20057;-77
2023/10/25 17:27:59;;;;;;;6.53;3.40;;;10.40;99.90;;;;;;5011634;28;20030;-79
2023/10/25 17:30:25;;;;;;;10.43;3.95;;;10.40;99.90;;;;;;5009355;28;20092;-76
2023/10/25 17:32:51;;;;;;;5.93;3.38;;;10.40;99.90;;;;;;5008277;28;20619;-79
2023/10/25 17:35:16;;;;;;;6.18;3.97;;;10.40;99.90;;;;;;4992037;28;20126;-77
2023/10/25 17:37:42;;;;;;;7.28;3.10;;;10.40;99.90;;;;;;4999181;28;20035;-80
2023/10/25 17:40:08;;;;;;;5.70;3.05;;;10.40;99.90;;;;;;4990272;28;20441;-78
2023/10/25 17:42:34;;;;;;;7.57;3.72;;;10.40;99.90;;;;;;4984823;28;20053;-75
2023/10/25 17:44:59;;;;;;;7.07;3.60;;;10.40;99.90;;;;;;5007099;28;20469;-78
2023/10/25 17:47:25;;;;;;;11.10;4.10;;;10.40;99.90;;;;;;5005401;28;20113;-78
2023/10/25 17:49:51;;;;;;;5.82;3.20;;;10.50;99.90;;;;;;4971559;28;20030;-77
2023/10/25 17:52:16;;;;;;;7.03;3.75;;;10.40;99.90;;;;;;4971931;28;20511;-77
2023/10/25 17:54:42;;;;;;;6.45;3.25;;;10.40;99.90;;;;;;5000454;28;20046;-79
2023/10/25 17:57:07;;;;;;;6.45;3.78;;;10.40;99.90;;;;;;5002663;28;20046;-79
2023/10/25 17:59:33;;;;;;;8.32;3.75;;;10.40;99.90;;;;;;5009007;28;20399;-79
2023/10/25 18:01:59;;;;;;;6.82;3.90;;;10.40;99.90;;;;;;4985634;28;20034;-79
2023/10/25 18:04:25;;;;;;;6.90;3.97;;;10.40;99.90;;;;;;4988856;28;20033;-78
2023/10/25 18:06:50;;;;;;;7.72;3.75;;;10.50;99.90;;;;;;4970360;28;20053;-77
2023/10/25 18:09:16;;;;;;;7.20;3.88;;;10.50;99.90;;;;;;5001513;28;20038;-78
2023/10/25 18:11:45;;;;;;;8.10;3.63;;;10.50;99.90;;;;;;4986839;28;20583;-75
2023/10/25 18:14:12;;;;;;;8.13;3.83;;;10.40;99.90;;;;;;4985892;28;20034;-77
2023/10/25 18:16:37;;;;;;;8.13;3.42;;;10.50;99.90;;;;;;4978229;28;20034;-77
2023/10/25 18:19:03;;;;;;;7.65;4.03;;;10.50;99.90;;;;;;4975157;28;20033;-78
2023/10/25 18:21:29;;;;;;;8.52;3.97;;;10.50;99.90;;;;;;5008377;28;20045;-79
2023/10/25 18:23:55;;;;;;;9.40;4.10;;;10.50;99.90;;;;;;4989609;28;20044;-78
2023/10/25 18:26:21;;;;;;;9.07;3.42;;;10.50;99.90;;;;;;4991001;28;20026;-77
2023/10/25 18:28:46;;;;;;;9.18;4.50;;;10.50;99.90;;;;;;4989465;28;20052;-77
2023/10/25 18:31:12;;;;;;;9.48;4.35;;;10.50;99.90;;;;;;5008374;28;20064;-77
2023/10/25 18:33:38;;;;;;;8.25;3.92;;;10.40;99.90;;;;;;4989815;28;20496;-78
2023/10/25 18:36:07;;;;;;;8.85;4.50;;;10.40;99.90;;;;;;5003318;28;20115;-77
2023/10/25 18:38:32;;;;;;;12.65;4.20;;;10.50;99.90;;;;;;5007590;28;20103;-76
2023/10/25 18:40:58;;;;;;;10.27;4.47;;;10.50;99.90;;;;;;5007224;28;20517;-76